Emilio Lamarca, Argentina
Current Conditions -  °F | °C
As of 9:00 PM on Friday 28 Nov 2014 (Local Time) from SAZN Reporting Station
Broken Clouds Broken Clouds  
Wind Chill: 72°   Ceiling: 20000
Heat Index: 72°   Visibility: 6mi
Dew Point: 37°   Wind: 8mph
Humidity: 29%   Direction: 180°S
Pressure: 29.74"   Gusts: NA
Location:  40.23°S, 62.59°W
Report Text: SAZN 290000Z 18007KT 9999 SCT050 SCT100BKN200 22/03 Q1007
Loading
Personal Weather Stations






























Interactive Weather Map New forecast layout! Learn more

10-Day Weather Forecast

Advertisements
Track Severe Weather on mobile